Terminal Aerodrome Forecast
Issued by NWS

Home | Current Version | Previous Version | Text Only | Print | Product List | Glossary On
Versions: 1 2 3 4 5 6 7 8 9 10 11 12 13 14 15 16 17 18 19 20 21 22 23 24 25 26 27 28 29 30 31
838
FTUS44 KFWD 271347 AAA
TAFAFW
TAF AMD
KAFW 271347Z 2714/2812 15016KT 6SM -SHRA VCTS SCT015 BKN040CB
      TEMPO 2715/2716 4SM -TSRA BKN020CB
     FM271700 18017KT P6SM FEW035 SCT150
     FM272100 17015G25KT P6SM VCTS BKN040CB
     FM280000 17017KT P6SM SCT040 BKN200
     FM281000 17012KT P6SM BKN020=

USA.gov is the U.S. government's official web portal to all federal, state and local government web resources and services.